createdAt,value
2017-05-10T00:00:52.016Z,66.41
2017-05-10T00:02:02.283Z,66.22
2017-05-10T00:03:12.549Z,66.7
2017-05-10T00:04:22.507Z,66.7
2017-05-10T00:05:32.461Z,66.6
2017-05-10T00:06:42.408Z,66.89
2017-05-10T00:07:52.706Z,67.46
2017-05-10T00:09:02.965Z,67.65
2017-05-10T00:10:12.917Z,67.55
2017-05-10T00:11:23.176Z,67.18
2017-05-10T00:12:33.430Z,66.89
2017-05-10T00:13:43.075Z,67.93
2017-05-10T00:14:53.338Z,67.74
2017-05-10T00:16:03.597Z,68.59
2017-05-10T00:17:13.227Z,69.54
2017-05-10T00:18:23.493Z,69.35
2017-05-10T00:19:33.749Z,69.07
2017-05-10T00:20:43.384Z,69.07
2017-05-10T00:21:53.649Z,69.64
2017-05-10T00:23:03.946Z,70.01
2017-05-10T00:24:14.199Z,69.82
2017-05-10T00:25:24.152Z,69.73
2017-05-10T00:26:34.413Z,69.45
2017-05-10T00:27:44.358Z,69.64
2017-05-10T00:28:54.635Z,70.01
2017-05-10T00:30:04.583Z,70.39
2017-05-10T00:31:14.846Z,69.92
2017-05-10T00:32:25.108Z,69.92
2017-05-10T00:33:35.375Z,70.97
2017-05-10T00:34:45.326Z,71.15
2017-05-10T00:35:55.583Z,70.97
2017-05-10T00:37:05.837Z,70.68
2017-05-10T00:38:16.096Z,71.53
2017-05-10T00:39:26.359Z,71.06
2017-05-10T00:40:36.619Z,71.53
2017-05-10T00:41:46.558Z,71.53
2017-05-10T00:42:56.818Z,71.34
2017-05-10T00:44:07.090Z,71.25
2017-05-10T00:45:17.034Z,70.49
2017-05-10T00:46:27.304Z,71.15
2017-05-10T00:47:37.245Z,71.06
2017-05-10T00:48:47.515Z,71.06
2017-05-10T00:49:57.480Z,71.62
2017-05-10T00:51:07.741Z,71.34
2017-05-10T00:52:17.995Z,71.72
2017-05-10T00:53:28.258Z,72.29
2017-05-10T00:54:38.516Z,72.38
2017-05-10T00:55:48.775Z,72.57
2017-05-10T00:56:59.030Z,72.19
2017-05-10T00:58:08.972Z,71.34
2017-05-10T00:59:19.233Z,72.06
2017-05-10T01:00:29.493Z,73.14
2017-05-10T01:01:39.435Z,72.29
2017-05-10T01:02:49.383Z,72.67
2017-05-10T01:03:59.646Z,73.14
2017-05-10T01:05:09.900Z,73.49
2017-05-10T01:06:20.194Z,74.15
2017-05-10T01:07:30.447Z,74.81
2017-05-10T01:08:40.397Z,75
2017-05-10T01:09:50.655Z,75.28
2017-05-10T01:11:00.923Z,75.47
2017-05-10T01:12:11.191Z,75.57
2017-05-10T01:13:21.145Z,75.57
2017-05-10T01:14:31.394Z,75.47
2017-05-10T01:15:41.030Z,75.76
2017-05-10T01:16:50.972Z,76.32
2017-05-10T01:18:01.230Z,76.61
2017-05-10T01:19:11.482Z,76.04
2017-05-10T01:20:21.744Z,76.23
2017-05-10T01:21:31.691Z,76.42
2017-05-10T01:22:41.636Z,75.66
2017-05-10T01:23:51.581Z,74.71
2017-05-10T01:25:01.851Z,74.33
2017-05-10T01:26:12.104Z,74.33
2017-05-10T01:27:22.398Z,73.49
2017-05-10T01:28:32.658Z,74.05
2017-05-10T01:29:42.914Z,73.77
2017-05-10T01:30:52.850Z,73.49
2017-05-10T01:32:02.808Z,72.63
2017-05-10T01:33:12.754Z,72.25
2017-05-10T01:34:23.027Z,72.06
2017-05-10T01:35:32.972Z,72.06
2017-05-10T01:36:42.912Z,71.97
2017-05-10T01:37:53.175Z,72.16
2017-05-10T01:39:03.433Z,72.53
2017-05-10T01:40:13.687Z,72.06
2017-05-10T01:41:23.942Z,71.78
2017-05-10T01:42:33.932Z,71.69
2017-05-10T01:43:44.202Z,72.53
2017-05-10T01:44:54.473Z,72.34
2017-05-10T01:46:04.422Z,72.92
2017-05-10T01:47:14.376Z,73.11
2017-05-10T01:48:24.632Z,73.3
2017-05-10T01:49:34.892Z,73.58
2017-05-10T01:50:45.153Z,74.33
2017-05-10T01:51:55.103Z,73.86
2017-05-10T01:53:05.364Z,74.05
2017-05-10T01:54:15.315Z,74.05
2017-05-10T01:55:25.573Z,74.05
2017-05-10T01:56:35.837Z,74.81
2017-05-10T01:57:46.095Z,75.19
2017-05-10T01:58:56.364Z,75.28
2017-05-10T02:00:06.626Z,75.38
2017-05-10T02:01:16.879Z,75
2017-05-10T02:02:27.137Z,75.19
2017-05-10T02:03:37.410Z,74.81
2017-05-10T02:04:47.358Z,75.09
2017-05-10T02:05:57.311Z,74.81
2017-05-10T02:07:07.580Z,74.43
2017-05-10T02:08:17.838Z,74.9
2017-05-10T02:09:28.133Z,74.62
2017-05-10T02:10:38.404Z,75.09
2017-05-10T02:11:48.664Z,74.71
2017-05-10T02:12:58.920Z,75.47
2017-05-10T02:14:09.182Z,75.57
2017-05-10T02:15:19.442Z,75
2017-05-10T02:16:29.707Z,74.81
2017-05-10T02:17:39.965Z,74.62
2017-05-10T02:18:50.226Z,74.62
2017-05-10T02:20:00.487Z,74.62
2017-05-10T02:21:10.120Z,74.9
2017-05-10T02:22:20.376Z,74.05
2017-05-10T02:23:30.643Z,73.77
2017-05-10T02:24:40.909Z,73.3
2017-05-10T02:25:51.169Z,73.39
2017-05-10T02:27:01.424Z,73.39
2017-05-10T02:28:11.051Z,73.58
2017-05-10T02:29:20.998Z,73.01
2017-05-10T02:30:31.265Z,73.01
2017-05-10T02:31:41.529Z,73.11
2017-05-10T02:32:51.789Z,73.2
2017-05-10T02:34:01.748Z,73.39
2017-05-10T02:35:11.698Z,73.11
2017-05-10T02:36:21.640Z,73.2
2017-05-10T02:37:31.898Z,73.58
2017-05-10T02:38:42.162Z,74.15
2017-05-10T02:39:52.111Z,73.96
2017-05-10T02:41:02.373Z,73.77
2017-05-10T02:42:12.317Z,73.86
2017-05-10T02:43:22.575Z,73.49
2017-05-10T02:44:32.837Z,73.3
2017-05-10T02:45:43.097Z,73.2
2017-05-10T02:46:53.045Z,73.39
2017-05-10T02:48:03.302Z,73.11
2017-05-10T02:49:13.275Z,73.39
2017-05-10T02:50:23.537Z,72.53
2017-05-10T02:51:33.837Z,72.06
2017-05-10T02:52:43.783Z,72.92
2017-05-10T02:53:53.732Z,73.11
2017-05-10T02:55:06.185Z,73.2
2017-05-10T02:56:15.821Z,73.11
2017-05-10T02:57:26.081Z,72.25
2017-05-10T02:58:36.341Z,72.25
2017-05-10T02:59:46.609Z,72.44
2017-05-10T03:00:56.551Z,72.53
2017-05-10T03:02:06.822Z,71.88
2017-05-10T03:03:17.086Z,72.06
2017-05-10T03:04:27.348Z,72.34
2017-05-10T03:05:37.332Z,72.06
2017-05-10T03:06:47.598Z,72.34
2017-05-10T03:07:57.856Z,72.44
2017-05-10T03:09:07.801Z,72.44
2017-05-10T03:10:18.070Z,72.82
2017-05-10T03:11:28.327Z,72.53
2017-05-10T03:12:38.584Z,73.01
2017-05-10T03:13:48.844Z,73.11
2017-05-10T03:14:59.111Z,72.34
2017-05-10T03:16:09.376Z,72.06
2017-05-10T03:17:19.319Z,73.01
2017-05-10T03:18:29.581Z,73.11
2017-05-10T03:19:39.845Z,73.11
2017-05-10T03:20:49.795Z,72.92
2017-05-10T03:22:00.062Z,73.3
2017-05-10T03:23:10.009Z,73.2
2017-05-10T03:24:20.270Z,73.11
2017-05-10T03:25:30.534Z,72.63
2017-05-10T03:26:40.475Z,72.16
2017-05-10T03:27:50.739Z,72.16
2017-05-10T03:29:01.028Z,72.16
2017-05-10T03:30:10.971Z,72.53
2017-05-10T03:31:20.918Z,71.97
2017-05-10T03:32:31.181Z,72.63
2017-05-10T03:33:41.438Z,72.16
2017-05-10T03:34:51.713Z,72.06
2017-05-10T03:36:01.984Z,72.25
2017-05-10T03:37:12.239Z,72.16
2017-05-10T03:38:22.500Z,72.34
2017-05-10T03:39:32.762Z,72.16
2017-05-10T03:40:43.017Z,72.16
2017-05-10T03:41:53.274Z,71.78
2017-05-10T03:43:03.530Z,71.21
2017-05-10T03:44:13.472Z,72.06
2017-05-10T03:45:23.417Z,71.88
2017-05-10T03:46:33.680Z,72.16
2017-05-10T03:47:43.936Z,72.44
2017-05-10T03:48:54.205Z,72.16
2017-05-10T03:50:04.471Z,72.63
2017-05-10T03:51:14.416Z,73.58
2017-05-10T03:52:24.685Z,73.39
2017-05-10T03:53:34.642Z,73.01
2017-05-10T03:54:44.909Z,73.49
2017-05-10T03:55:55.192Z,73.3
2017-05-10T03:57:05.455Z,72.92
2017-05-10T03:58:15.714Z,73.3
2017-05-10T03:59:25.973Z,72.44
2017-05-10T04:00:36.233Z,72.92
2017-05-10T04:01:46.494Z,73.2
2017-05-10T04:02:56.746Z,73.3
2017-05-10T04:04:07.013Z,73.3
2017-05-10T04:05:17.283Z,73.39
2017-05-10T04:06:27.228Z,73.86
2017-05-10T04:07:37.489Z,73.96
2017-05-10T04:08:47.749Z,73.96
2017-05-10T04:09:57.725Z,73.96
2017-05-10T04:11:08.031Z,74.24
2017-05-10T04:12:18.325Z,74.05
2017-05-10T04:13:28.589Z,74.33
2017-05-10T04:14:38.224Z,74.81
2017-05-10T04:15:48.168Z,74.33
2017-05-10T04:16:58.431Z,74.62
2017-05-10T04:18:08.701Z,74.52
2017-05-10T04:19:18.334Z,74.9
2017-05-10T04:20:28.606Z,74.33
2017-05-10T04:21:38.866Z,74.81
2017-05-10T04:22:49.131Z,75.09
2017-05-10T04:23:59.405Z,74.71
2017-05-10T04:25:09.672Z,74.43
2017-05-10T04:26:19.929Z,75.28
2017-05-10T04:27:30.181Z,75.38
2017-05-10T04:28:40.447Z,75.38
2017-05-10T04:29:50.426Z,75.19
2017-05-10T04:31:00.687Z,75.57
2017-05-10T04:32:10.636Z,76.42
2017-05-10T04:33:20.905Z,76.14
2017-05-10T04:34:31.162Z,75.85
2017-05-10T04:35:41.413Z,76.42
2017-05-10T04:36:51.670Z,76.7
2017-05-10T04:38:01.608Z,77.65
2017-05-10T04:39:11.871Z,77.18
2017-05-10T04:40:22.127Z,77.18
2017-05-10T04:41:32.382Z,77.56
2017-05-10T04:42:42.635Z,77.46
2017-05-10T04:43:52.903Z,76.99
2017-05-10T04:45:03.160Z,77.27
2017-05-10T04:46:13.106Z,77.46
2017-05-10T04:47:23.363Z,76.42
2017-05-10T04:48:33.630Z,76.51
2017-05-10T04:49:43.588Z,77.27
2017-05-10T04:50:53.850Z,77.18
2017-05-10T04:52:04.112Z,77.18
2017-05-10T04:53:14.369Z,77.18
2017-05-10T04:54:24.643Z,77.18
2017-05-10T04:55:34.591Z,77.18
2017-05-10T04:56:44.286Z,78.03
2017-05-10T04:57:54.228Z,78.03
2017-05-10T04:59:04.517Z,77.75
2017-05-10T05:00:14.471Z,77.84
2017-05-10T05:01:24.746Z,77.18
2017-05-10T05:02:35.010Z,76.7
2017-05-10T05:03:45.264Z,77.08
2017-05-10T05:04:54.897Z,77.08
2017-05-10T05:06:05.156Z,77.37
2017-05-10T05:07:15.100Z,77.31
2017-05-10T05:08:25.383Z,77.31
2017-05-10T05:09:35.355Z,79.02
2017-05-10T05:10:45.628Z,79.93
2017-05-10T05:11:55.574Z,80.21
2017-05-10T05:13:05.834Z,79.93
2017-05-10T05:14:15.780Z,80.77
2017-05-10T05:15:26.046Z,80.68
2017-05-10T05:16:36.301Z,80.21
2017-05-10T05:17:46.559Z,80.74
2017-05-10T05:18:56.502Z,80.45
2017-05-10T05:20:06.752Z,80.21
2017-05-10T05:21:16.696Z,80.4
2017-05-10T05:22:26.965Z,81.15
2017-05-10T05:23:37.227Z,81.34
2017-05-10T05:24:47.177Z,81.59
2017-05-10T05:25:57.446Z,80.45
2017-05-10T05:27:07.701Z,80.55
2017-05-10T05:28:17.649Z,80.87
2017-05-10T05:29:27.911Z,80.45
2017-05-10T05:30:38.176Z,80.26
2017-05-10T05:31:48.440Z,80.36
2017-05-10T05:32:58.701Z,80.26
2017-05-10T05:34:08.956Z,80.36
2017-05-10T05:35:19.213Z,80.26
2017-05-10T05:36:29.473Z,80.74
2017-05-10T05:37:39.728Z,80.36
2017-05-10T05:38:49.988Z,79.32
2017-05-10T05:39:59.636Z,78.22
2017-05-10T05:41:09.587Z,78.31
2017-05-10T05:42:19.849Z,78.13
2017-05-10T05:43:30.119Z,77.65
2017-05-10T05:44:40.382Z,77.75
2017-05-10T05:45:50.329Z,77.37
2017-05-10T05:47:00.595Z,76.89
2017-05-10T05:48:10.547Z,76.46
2017-05-10T05:49:20.500Z,75.98
2017-05-10T05:50:30.772Z,75.89
2017-05-10T05:51:41.034Z,75.42
2017-05-10T05:52:50.984Z,74.75
2017-05-10T05:54:00.925Z,74.09
2017-05-10T05:55:10.872Z,74.22
2017-05-10T05:56:20.854Z,74.03
2017-05-10T05:57:30.797Z,73.75
2017-05-10T05:58:41.061Z,73.18
2017-05-10T05:59:51.328Z,72.14
2017-05-10T06:01:01.589Z,72.42
2017-05-10T06:02:11.852Z,73.27
2017-05-10T06:03:22.123Z,73.27
2017-05-10T06:04:32.389Z,72.42
2017-05-10T06:05:42.650Z,72.33
2017-05-10T06:06:52.903Z,72.14
2017-05-10T06:08:03.158Z,71.76
2017-05-10T06:09:13.109Z,72.14
2017-05-10T06:10:23.054Z,71.28
2017-05-10T06:11:33.310Z,71.66
2017-05-10T06:12:43.572Z,71.13
2017-05-10T06:13:53.516Z,70.94
2017-05-10T06:15:03.789Z,70.28
2017-05-10T06:16:14.050Z,70.65
2017-05-10T06:17:23.995Z,70.09
2017-05-10T06:18:33.936Z,69.99
2017-05-10T06:19:44.196Z,70.09
2017-05-10T06:20:54.479Z,70.75
2017-05-10T06:22:04.743Z,70.65
2017-05-10T06:23:14.688Z,70.65
2017-05-10T06:24:24.638Z,71.22
2017-05-10T06:25:34.955Z,71.32
2017-05-10T06:26:44.588Z,70.94
2017-05-10T06:27:54.855Z,70.84
2017-05-10T06:29:05.121Z,71.07
2017-05-10T06:30:15.387Z,70.84
2017-05-10T06:31:25.645Z,71.13
2017-05-10T06:32:35.904Z,70.69
2017-05-10T06:33:45.857Z,70.21
2017-05-10T06:34:55.807Z,69.17
2017-05-10T06:36:06.094Z,69.08
2017-05-10T06:37:16.040Z,69.65
2017-05-10T06:38:26.310Z,70.37
2017-05-10T06:39:36.579Z,69.52
2017-05-10T06:40:46.522Z,69.52
2017-05-10T06:41:56.789Z,68.89
2017-05-10T06:43:06.425Z,68.32
2017-05-10T06:44:15.744Z,68.23
2017-05-10T06:45:26.002Z,68.23
2017-05-10T06:46:35.958Z,68.04
2017-05-10T06:47:45.904Z,67.46
2017-05-10T06:48:55.859Z,67.27
2017-05-10T06:50:06.124Z,66.99
2017-05-10T06:51:15.754Z,67.56
2017-05-10T06:52:25.699Z,66.8
2017-05-10T06:53:35.648Z,66.99
2017-05-10T06:54:45.594Z,66.71
2017-05-10T06:55:55.856Z,66.8
2017-05-10T06:57:06.118Z,66.89
2017-05-10T06:58:16.374Z,66.71
2017-05-10T06:59:26.637Z,66.71
2017-05-10T07:00:37.149Z,66.52
2017-05-10T07:01:47.421Z,66.89
2017-05-10T07:02:57.381Z,65.95
2017-05-10T07:04:07.695Z,66.14
2017-05-10T07:05:17.949Z,65.88
2017-05-10T07:06:28.215Z,65.22
2017-05-10T07:07:38.478Z,65.03
2017-05-10T07:08:48.743Z,64.37
2017-05-10T07:09:59.015Z,64.52
2017-05-10T07:11:08.973Z,65.41
2017-05-10T07:12:19.236Z,64.94
2017-05-10T07:13:29.515Z,65.12
2017-05-10T07:14:39.824Z,65.5
2017-05-10T07:15:50.094Z,65.31
2017-05-10T07:17:00.368Z,64.46
2017-05-10T07:18:10.635Z,64.65
2017-05-10T07:19:20.592Z,64.94
2017-05-10T07:20:30.859Z,64.08
2017-05-10T07:21:40.803Z,62.75
2017-05-10T07:22:50.437Z,63.32
2017-05-10T07:24:00.706Z,63.6
2017-05-10T07:25:10.653Z,63.89
2017-05-10T07:26:20.600Z,63.04
2017-05-10T07:27:30.872Z,62.37
2017-05-10T07:28:41.137Z,62.5
2017-05-10T07:29:51.399Z,62.46
2017-05-10T07:31:01.663Z,61.93
2017-05-10T07:32:11.927Z,62.21
2017-05-10T07:33:21.872Z,62.66
2017-05-10T07:34:32.134Z,61.93
2017-05-10T07:35:42.381Z,61.71
2017-05-10T07:36:52.645Z,61.55
2017-05-10T07:38:02.593Z,61.45
2017-05-10T07:39:12.860Z,61.74
2017-05-10T07:40:23.144Z,60.31
2017-05-10T07:41:33.409Z,59.84
2017-05-10T07:42:43.040Z,59.17
2017-05-10T07:43:53.307Z,59.46
2017-05-10T07:45:03.569Z,60.5
2017-05-10T07:46:13.827Z,60.5
2017-05-10T07:47:24.100Z,60.5
2017-05-10T07:48:34.049Z,59.74
2017-05-10T07:49:44.313Z,60.53
2017-05-10T07:50:54.570Z,59.01
2017-05-10T07:52:04.834Z,58.35
2017-05-10T07:53:14.834Z,58.44
2017-05-10T07:54:25.102Z,58.54
2017-05-10T07:55:35.374Z,58.06
2017-05-10T07:56:45.658Z,58.06
2017-05-10T07:57:55.937Z,58.06
2017-05-10T07:59:05.575Z,59.2
2017-05-10T08:00:15.216Z,58.35
2017-05-10T08:01:25.174Z,57.4
2017-05-10T08:02:34.812Z,56.63
2017-05-10T08:03:45.119Z,57.11
2017-05-10T08:04:55.447Z,56.07
2017-05-10T08:06:05.725Z,56.35
2017-05-10T08:07:15.991Z,55.3
2017-05-10T08:08:26.259Z,55.97
2017-05-10T08:09:36.531Z,56.35
2017-05-10T08:10:47.108Z,55.97
2017-05-10T08:11:57.074Z,56.16
2017-05-10T08:13:07.034Z,56.35
2017-05-10T08:14:17.305Z,56.45
2017-05-10T08:15:27.572Z,54.83
2017-05-10T08:16:37.570Z,55.5
2017-05-10T08:17:47.839Z,55.3
2017-05-10T08:18:57.803Z,55.5
2017-05-10T08:20:07.760Z,56.16
2017-05-10T08:21:17.400Z,56.26
2017-05-10T08:22:27.661Z,56.26
2017-05-10T08:23:37.929Z,55.02
2017-05-10T08:24:48.195Z,54.17
2017-05-10T08:25:58.458Z,53.97
2017-05-10T08:27:08.412Z,54.17
2017-05-10T08:28:18.362Z,55.21
2017-05-10T08:29:28.667Z,55.02
2017-05-10T08:30:38.618Z,55.11
2017-05-10T08:31:48.876Z,54.64
2017-05-10T08:32:59.143Z,54.55
2017-05-10T08:34:09.404Z,55.02
2017-05-10T08:35:19.356Z,54.17
2017-05-10T08:36:29.314Z,53.59
2017-05-10T08:37:39.580Z,53.22
2017-05-10T08:38:49.842Z,53.41
2017-05-10T08:40:00.100Z,53.24
2017-05-10T08:41:10.358Z,53.24
2017-05-10T08:42:19.991Z,53.15
2017-05-10T08:43:30.274Z,51.06
2017-05-10T08:44:40.554Z,51.62
2017-05-10T08:45:50.817Z,50.87
2017-05-10T08:47:01.079Z,50.93
2017-05-10T08:48:10.722Z,51.41
2017-05-10T08:49:20.994Z,51.62
2017-05-10T08:50:30.949Z,52.2
2017-05-10T08:51:40.900Z,51.53
2017-05-10T08:52:51.165Z,50.29
2017-05-10T08:54:01.440Z,49.82
2017-05-10T08:55:11.713Z,48.68
2017-05-10T08:56:21.979Z,49.15
2017-05-10T08:57:32.251Z,49.63
2017-05-10T08:58:42.200Z,48.49
2017-05-10T08:59:52.488Z,47.92
2017-05-10T09:01:02.751Z,47.44
2017-05-10T09:02:12.707Z,48.21
2017-05-10T09:03:22.989Z,48.77
2017-05-10T09:04:33.258Z,48.87
2017-05-10T09:05:43.518Z,48.3
2017-05-10T09:06:53.470Z,47.54
2017-05-10T09:08:03.739Z,46.78
2017-05-10T09:09:14.005Z,46.4
2017-05-10T09:10:24.277Z,47.61
2017-05-10T09:11:34.536Z,47.82
2017-05-10T09:12:44.490Z,47.82
2017-05-10T09:13:54.443Z,47.44
2017-05-10T09:15:04.715Z,46.94
2017-05-10T09:16:14.667Z,46.28
2017-05-10T09:17:24.926Z,46.94
2017-05-10T09:18:35.195Z,47.61
2017-05-10T09:19:45.468Z,47.52
2017-05-10T09:20:55.727Z,48.18
2017-05-10T09:22:05.678Z,48.66
2017-05-10T09:23:15.627Z,48.66
2017-05-10T09:24:25.894Z,48.37
2017-05-10T09:25:35.846Z,47.8
2017-05-10T09:26:46.105Z,48.75
2017-05-10T09:27:56.378Z,49.51
2017-05-10T09:29:06.349Z,49.35
2017-05-10T09:30:16.309Z,49.22
2017-05-10T09:31:26.570Z,48.11
2017-05-10T09:32:36.833Z,48.39
2017-05-10T09:33:46.469Z,48.21
2017-05-10T09:34:56.735Z,47.16
2017-05-10T09:36:06.370Z,46.3
2017-05-10T09:37:16.316Z,46.88
2017-05-10T09:38:26.576Z,48.11
2017-05-10T09:39:36.846Z,48.56
2017-05-10T09:40:46.497Z,48.01
2017-05-10T09:41:56.766Z,48.18
2017-05-10T09:43:06.817Z,48.27
2017-05-10T09:44:17.134Z,49.04
2017-05-10T09:45:27.083Z,49.32
2017-05-10T09:46:37.342Z,49.54
2017-05-10T09:47:47.601Z,49.6
2017-05-10T09:48:57.556Z,47.99
2017-05-10T09:50:07.503Z,47.52
2017-05-10T09:51:17.454Z,47.42
2017-05-10T09:52:27.723Z,47.8
2017-05-10T09:53:37.668Z,47.8
2017-05-10T09:54:47.939Z,47.42
2017-05-10T09:55:58.211Z,47.71
2017-05-10T09:57:08.159Z,47.89
2017-05-10T09:58:17.814Z,46.75
2017-05-10T09:59:28.074Z,47.52
2017-05-10T10:00:38.335Z,45.9
2017-05-10T10:01:48.283Z,46.09
2017-05-10T10:02:58.548Z,46.16
2017-05-10T10:04:08.502Z,46.75
2017-05-10T10:05:18.458Z,47.13
2017-05-10T10:06:28.410Z,47.11
2017-05-10T10:07:38.362Z,46.37
2017-05-10T10:08:48.310Z,47.58
2017-05-10T10:09:58.580Z,49.6
2017-05-10T10:11:08.222Z,50.34
2017-05-10T10:12:18.171Z,51.6
2017-05-10T10:13:28.122Z,50.93
2017-05-10T10:14:38.389Z,52.26
2017-05-10T10:15:48.654Z,51.12
2017-05-10T10:16:58.290Z,52.53
2017-05-10T10:18:08.559Z,51.76
2017-05-10T10:19:18.515Z,49.6
2017-05-10T10:20:28.462Z,49.04
2017-05-10T10:21:38.412Z,48.85
2017-05-10T10:22:48.683Z,49.13
2017-05-10T10:23:58.330Z,48.56
2017-05-10T10:25:08.292Z,48.66
2017-05-10T10:26:18.238Z,47.89
2017-05-10T10:27:28.503Z,48.08
2017-05-10T10:28:38.762Z,48.08
2017-05-10T10:29:49.030Z,46.75
2017-05-10T10:30:59.286Z,46.37
2017-05-10T10:32:09.553Z,47.04
2017-05-10T10:33:19.501Z,47.04
2017-05-10T10:34:29.881Z,47.71
2017-05-10T10:35:40.142Z,47.71
2017-05-10T10:36:50.112Z,48.06
2017-05-10T10:38:00.373Z,48.54
2017-05-10T10:39:10.630Z,49.79
2017-05-10T10:40:20.893Z,50.74
2017-05-10T10:41:31.161Z,53.22
2017-05-10T10:42:41.725Z,55.47
2017-05-10T10:43:51.983Z,56.13
2017-05-10T10:45:02.242Z,56.7
2017-05-10T10:46:12.674Z,57.53
2017-05-10T10:47:22.964Z,58.48
2017-05-10T10:48:37.163Z,59.33
2017-05-10T10:49:47.110Z,58
2017-05-10T10:50:57.374Z,58.29
2017-05-10T10:52:06.695Z,59.33
2017-05-10T10:53:15.702Z,57.34
2017-05-10T10:54:27.965Z,58.29
2017-05-10T10:55:37.911Z,58.95
2017-05-10T10:56:48.172Z,58.03
2017-05-10T10:57:58.443Z,58.22
2017-05-10T10:59:08.390Z,56.13
2017-05-10T11:00:18.652Z,55.76
2017-05-10T11:01:28.918Z,54.9
2017-05-10T11:02:39.175Z,51.48
2017-05-10T11:03:49.127Z,51.6
2017-05-10T11:04:59.076Z,51.41
2017-05-10T11:06:09.356Z,52.08
2017-05-10T11:07:19.301Z,51.72
2017-05-10T11:08:29.561Z,49.73
2017-05-10T11:09:39.829Z,48.87
2017-05-10T11:10:50.092Z,47.82
2017-05-10T11:12:00.355Z,47.85
2017-05-10T11:13:10.327Z,47.63
2017-05-10T11:14:20.280Z,46.78
2017-05-10T11:15:30.544Z,48.77
2017-05-10T11:16:40.820Z,48.49
2017-05-10T11:17:51.079Z,48.49
2017-05-10T11:19:01.027Z,45.35
2017-05-10T11:20:10.978Z,44.42
2017-05-10T11:21:20.612Z,44.42
2017-05-10T11:22:30.872Z,43.95
2017-05-10T11:23:41.135Z,43.19
2017-05-10T11:24:51.392Z,43.66
2017-05-10T11:26:01.660Z,44.71
2017-05-10T11:27:11.622Z,44.71
2017-05-10T11:28:21.885Z,45
2017-05-10T11:29:31.836Z,48.03
2017-05-10T11:30:42.093Z,50.77
2017-05-10T11:31:52.355Z,51.62
2017-05-10T11:33:02.313Z,51.72
2017-05-10T11:34:12.581Z,52.48
2017-05-10T11:35:22.865Z,52.39
2017-05-10T11:36:33.135Z,52.1
2017-05-10T11:37:42.769Z,50.96
2017-05-10T11:38:53.034Z,51.53
2017-05-10T11:40:03.308Z,50.77
2017-05-10T11:41:13.256Z,48.85
2017-05-10T11:42:22.892Z,47.61
2017-05-10T11:43:33.166Z,46.66
2017-05-10T11:44:43.431Z,48.56
2017-05-10T11:45:53.695Z,48.85
2017-05-10T11:47:03.644Z,48.58
2017-05-10T11:48:13.904Z,48.87
2017-05-10T11:49:23.852Z,49.79
2017-05-10T11:50:34.114Z,49.32
2017-05-10T11:51:44.374Z,50.18
2017-05-10T11:52:54.327Z,51.03
2017-05-10T11:54:04.282Z,49.7
2017-05-10T11:55:14.235Z,49.13
2017-05-10T11:56:24.185Z,48.94
2017-05-10T11:57:34.454Z,48.66
2017-05-10T11:58:44.721Z,49.6
2017-05-10T11:59:54.986Z,49.89
2017-05-10T12:01:04.626Z,50.27
2017-05-10T12:02:14.894Z,50.81
2017-05-10T12:03:25.166Z,51.01
2017-05-10T12:04:35.736Z,51.76
2017-05-10T12:05:45.997Z,52.62
2017-05-10T12:06:56.253Z,52.91
2017-05-10T12:08:05.884Z,53.19
2017-05-10T12:09:16.151Z,53.38
2017-05-10T12:10:26.350Z,54.05
2017-05-10T12:11:36.621Z,54.24
2017-05-10T12:12:46.577Z,55.94
2017-05-10T12:13:56.838Z,53.95
2017-05-10T12:15:07.101Z,53.76
2017-05-10T12:16:19.034Z,54.14
2017-05-10T12:17:29.303Z,55.66
2017-05-10T12:18:39.565Z,56.8
2017-05-10T12:19:49.196Z,56.32
2017-05-10T12:20:59.456Z,54.8
2017-05-10T12:22:09.975Z,55.85
2017-05-10T12:23:19.617Z,56.87
2017-05-10T12:24:29.882Z,57.53
2017-05-10T12:25:40.148Z,59.05
2017-05-10T12:26:50.430Z,58.58
2017-05-10T12:28:00.375Z,57.72
2017-05-10T12:29:10.331Z,57.53
2017-05-10T12:30:20.595Z,57.43
2017-05-10T12:31:30.538Z,58.39
2017-05-10T12:32:40.484Z,58
2017-05-10T12:33:50.740Z,58
2017-05-10T12:35:01.009Z,57.24
2017-05-10T12:36:10.962Z,57.24
2017-05-10T12:37:20.906Z,57.24
2017-05-10T12:38:31.170Z,56.77
2017-05-10T12:39:41.115Z,57.06
2017-05-10T12:40:51.377Z,56.99
2017-05-10T12:42:01.641Z,57.09
2017-05-10T12:43:11.590Z,58.22
2017-05-10T12:44:21.855Z,57.43
2017-05-10T12:45:32.118Z,58
2017-05-10T12:46:42.381Z,58.39
2017-05-10T12:47:52.648Z,57.53
2017-05-10T12:49:02.596Z,57.91
2017-05-10T12:50:12.551Z,58
2017-05-10T12:51:22.814Z,57.62
2017-05-10T12:52:33.068Z,57.43
2017-05-10T12:53:43.012Z,57.18
2017-05-10T12:54:53.282Z,57.91
2017-05-10T12:56:03.228Z,61.14
2017-05-10T12:57:13.487Z,61.33
2017-05-10T12:58:23.749Z,63.32
2017-05-10T12:59:34.028Z,63.95
2017-05-10T13:00:44.291Z,64.62
2017-05-10T13:01:54.553Z,66.1
2017-05-10T13:03:04.812Z,67.14
2017-05-10T13:04:14.755Z,67.81
2017-05-10T13:05:25.018Z,68.76
2017-05-10T13:06:35.278Z,69.33
2017-05-10T13:07:45.532Z,68.66
2017-05-10T13:08:55.791Z,67.05
2017-05-10T13:10:06.048Z,64.78
2017-05-10T13:11:16.310Z,65.44
2017-05-10T13:12:25.940Z,65.53
2017-05-10T13:13:36.201Z,63.26
2017-05-10T13:14:46.458Z,63.1
2017-05-10T13:15:56.711Z,64.43
2017-05-10T13:17:06.656Z,64.43
2017-05-10T13:18:16.601Z,63.86
2017-05-10T13:19:26.548Z,61.87
2017-05-10T13:20:36.807Z,61.52
2017-05-10T13:21:46.759Z,61.23
2017-05-10T13:22:57.042Z,61.23
2017-05-10T13:24:07.303Z,60.57
2017-05-10T13:25:17.571Z,59.43
2017-05-10T13:26:27.829Z,60.47
2017-05-10T13:27:37.781Z,60.1
2017-05-10T13:28:48.043Z,59.14
2017-05-10T13:29:58.299Z,58.39
2017-05-10T13:31:08.601Z,58.89
2017-05-10T13:32:18.861Z,58.98
2017-05-10T13:33:28.491Z,57.94
2017-05-10T13:34:38.756Z,57.65
2017-05-10T13:35:48.704Z,56.83
2017-05-10T13:36:58.967Z,56.07
2017-05-10T13:38:08.915Z,55.69
2017-05-10T13:39:19.175Z,55.21
2017-05-10T13:40:29.445Z,55.52
2017-05-10T13:41:39.713Z,54.1
2017-05-10T13:42:49.973Z,54
2017-05-10T13:44:00.233Z,53.72
2017-05-10T13:45:10.185Z,54.29
2017-05-10T13:46:20.442Z,53.53
2017-05-10T13:47:30.391Z,53.15
2017-05-10T13:48:40.342Z,52.89
2017-05-10T13:49:50.610Z,52.61
2017-05-10T13:51:00.869Z,51.93
2017-05-10T13:52:10.506Z,50.79
2017-05-10T13:53:20.762Z,49.56
2017-05-10T13:54:31.021Z,50.89
2017-05-10T13:55:41.290Z,50.42
2017-05-10T13:56:51.559Z,51.43
2017-05-10T13:58:01.818Z,52.29
2017-05-10T13:59:12.083Z,53.24
2017-05-10T14:00:22.345Z,54.19
2017-05-10T14:01:32.297Z,55.59
2017-05-10T14:02:42.559Z,57.4
2017-05-10T14:03:52.550Z,58.8
2017-05-10T14:05:02.816Z,59.17
2017-05-10T14:06:12.781Z,59.74
2017-05-10T14:07:22.414Z,59.84
2017-05-10T14:08:32.365Z,60.31
2017-05-10T14:09:42.312Z,61.36
2017-05-10T14:10:52.566Z,61.33
2017-05-10T14:12:02.827Z,61.14
2017-05-10T14:13:13.089Z,60.5
2017-05-10T14:14:23.037Z,60.28
2017-05-10T14:15:33.298Z,58.98
2017-05-10T14:16:43.559Z,58.1
2017-05-10T14:17:53.815Z,58.41
2017-05-10T14:19:04.077Z,57.94
2017-05-10T14:20:14.030Z,58.51
2017-05-10T14:21:23.976Z,57.68
2017-05-10T14:22:34.245Z,57.3
2017-05-10T14:23:44.503Z,56.45
2017-05-10T14:24:59.957Z,55.97
2017-05-10T14:26:09.908Z,56.1
2017-05-10T14:27:20.164Z,55.33
2017-05-10T14:28:30.424Z,54.19
2017-05-10T14:29:40.684Z,53.84
2017-05-10T14:30:50.630Z,52.98
2017-05-10T14:32:00.578Z,53.55
2017-05-10T14:33:10.848Z,53.81
2017-05-10T14:34:21.110Z,54
2017-05-10T14:35:31.063Z,53.43
2017-05-10T14:36:41.009Z,54.38
2017-05-10T14:37:50.961Z,54.38
2017-05-10T14:39:01.232Z,54.48
2017-05-10T14:40:11.542Z,55.05
2017-05-10T14:41:21.496Z,55.43
2017-05-10T14:42:31.769Z,56.38
2017-05-10T14:43:42.036Z,55.88
2017-05-10T14:44:52.014Z,57.5
2017-05-10T14:46:01.962Z,57.3
2017-05-10T14:47:12.227Z,58.35
2017-05-10T14:48:22.487Z,59.11
2017-05-10T14:49:32.745Z,61.17
2017-05-10T14:50:42.382Z,63.92
2017-05-10T14:51:52.335Z,64.75
2017-05-10T14:53:02.612Z,65.69
2017-05-10T14:54:12.567Z,64.56
2017-05-10T14:55:22.211Z,65.31
2017-05-10T14:56:32.476Z,66.27
2017-05-10T14:57:42.743Z,68.51
2017-05-10T14:58:53.020Z,69.55
2017-05-10T15:00:03.286Z,69.17
2017-05-10T15:01:13.556Z,69.55
2017-05-10T15:02:23.183Z,70.69
2017-05-10T15:03:32.816Z,69.65
2017-05-10T15:04:43.082Z,69.65
2017-05-10T15:05:53.341Z,69.17
2017-05-10T15:07:03.610Z,67.56